sensor_id;sensor_type;location;lat;lon;timestamp;temperature;humidity
1011;DHT22;494;48.744;10.106;2024-01-16T09:42:34;3.20;1.00
1011;DHT22;494;48.744;10.106;2024-01-16T09:46:08;3.90;1.00
1011;DHT22;494;48.744;10.106;2024-01-16T09:49:53;4.30;1.00
1011;DHT22;494;48.744;10.106;2024-01-16T10:20:57;5.50;1.00
1011;DHT22;494;48.744;10.106;2024-01-16T10:24:11;5.40;1.00
1011;DHT22;494;48.744;10.106;2024-01-16T10:27:15;5.40;1.00
1011;DHT22;494;48.744;10.106;2024-01-16T10:29:57;5.50;1.00
1011;DHT22;494;48.744;10.106;2024-01-16T10:32:38;5.70;1.00
1011;DHT22;494;48.744;10.106;2024-01-16T10:35:24;5.90;1.00
1011;DHT22;494;48.744;10.106;2024-01-16T10:38:06;6.10;1.00
1011;DHT22;494;48.744;10.106;2024-01-16T10:40:40;6.30;1.00
1011;DHT22;494;48.744;10.106;2024-01-16T10:43:22;6.30;1.00
1011;DHT22;494;48.744;10.106;2024-01-16T10:46:07;6.30;1.00
1011;DHT22;494;48.744;10.106;2024-01-16T10:49:01;6.30;1.00
1011;DHT22;494;48.744;10.106;2024-01-16T10:51:34;6.30;1.00
1011;DHT22;494;48.744;10.106;2024-01-16T10:54:35;6.30;1.00
1011;DHT22;494;48.744;10.106;2024-01-16T10:57:06;6.30;1.00
1011;DHT22;494;48.744;10.106;2024-01-16T11:00:09;6.30;1.00
1011;DHT22;494;48.744;10.106;2024-01-16T11:09:27;6.30;1.00
1011;DHT22;494;48.744;10.106;2024-01-16T11:21:15;10.10;1.00
1011;DHT22;494;48.744;10.106;2024-01-16T13:16:50;8.40;1.00
1011;DHT22;494;48.744;10.106;2024-01-16T13:19:32;7.70;1.00
1011;DHT22;494;48.744;10.106;2024-01-16T13:22:02;7.30;1.00
1011;DHT22;494;48.744;10.106;2024-01-16T13:24:53;7.10;1.00
1011;DHT22;494;48.744;10.106;2024-01-16T13:27:37;6.90;1.00
1011;DHT22;494;48.744;10.106;2024-01-16T13:30:08;6.90;1.00
1011;DHT22;494;48.744;10.106;2024-01-16T13:32:40;7.00;1.00
1011;DHT22;494;48.744;10.106;2024-01-16T13:35:10;7.10;1.00
1011;DHT22;494;48.744;10.106;2024-01-16T13:37:39;7.20;1.00
1011;DHT22;494;48.744;10.106;2024-01-16T13:40:19;7.30;1.00
1011;DHT22;494;48.744;10.106;2024-01-16T13:43:04;7.30;1.00
1011;DHT22;494;48.744;10.106;2024-01-16T13:45:34;7.30;1.00
1011;DHT22;494;48.744;10.106;2024-01-16T13:48:13;7.50;1.00
1011;DHT22;494;48.744;10.106;2024-01-16T13:50:43;7.70;1.00
1011;DHT22;494;48.744;10.106;2024-01-16T13:53:13;7.90;1.00
1011;DHT22;494;48.744;10.106;2024-01-16T13:55:42;8.00;1.00
1011;DHT22;494;48.744;10.106;2024-01-16T13:58:20;7.90;1.00
1011;DHT22;494;48.744;10.106;2024-01-16T14:01:27;7.80;1.00
1011;DHT22;494;48.744;10.106;2024-01-16T14:04:19;7.50;1.00
1011;DHT22;494;48.744;10.106;2024-01-16T14:06:50;7.40;1.00
1011;DHT22;494;48.744;10.106;2024-01-16T14:09:41;7.40;1.00
1011;DHT22;494;48.744;10.106;2024-01-16T14:12:18;7.40;1.00
1011;DHT22;494;48.744;10.106;2024-01-16T14:14:59;7.40;1.00
1011;DHT22;494;48.744;10.106;2024-01-16T14:17:30;7.30;1.00
1011;DHT22;494;48.744;10.106;2024-01-16T14:20:07;7.40;1.00
1011;DHT22;494;48.744;10.106;2024-01-16T14:22:54;7.30;1.00
1011;DHT22;494;48.744;10.106;2024-01-16T14:25:30;7.40;1.00
1011;DHT22;494;48.744;10.106;2024-01-16T14:28:00;7.40;1.00
1011;DHT22;494;48.744;10.106;2024-01-16T14:30:32;7.40;1.00
1011;DHT22;494;48.744;10.106;2024-01-16T14:33:13;7.40;1.00
1011;DHT22;494;48.744;10.106;2024-01-16T14:35:52;7.50;1.00
1011;DHT22;494;48.744;10.106;2024-01-16T14:38:29;7.50;1.00
1011;DHT22;494;48.744;10.106;2024-01-16T14:41:00;7.40;1.00
1011;DHT22;494;48.744;10.106;2024-01-16T14:43:31;7.30;1.00
1011;DHT22;494;48.744;10.106;2024-01-16T14:46:05;7.20;1.00
1011;DHT22;494;48.744;10.106;2024-01-16T14:48:50;7.10;1.00
1011;DHT22;494;48.744;10.106;2024-01-16T14:51:42;7.10;1.00
1011;DHT22;494;48.744;10.106;2024-01-16T14:54:11;7.00;1.00
1011;DHT22;494;48.744;10.106;2024-01-16T14:56:41;7.10;1.00
1011;DHT22;494;48.744;10.106;2024-01-16T14:59:09;6.90;1.00
1011;DHT22;494;48.744;10.106;2024-01-16T15:01:42;6.80;1.00
1011;DHT22;494;48.744;10.106;2024-01-16T15:04:12;6.60;1.00
1011;DHT22;494;48.744;10.106;2024-01-16T15:06:42;6.70;1.00
1011;DHT22;494;48.744;10.106;2024-01-16T15:09:13;6.50;1.00
1011;DHT22;494;48.744;10.106;2024-01-16T15:11:42;6.40;1.00
1011;DHT22;494;48.744;10.106;2024-01-16T15:14:15;6.20;1.00
1011;DHT22;494;48.744;10.106;2024-01-16T15:16:44;6.10;1.00
1011;DHT22;494;48.744;10.106;2024-01-16T15:19:14;5.90;1.00
1011;DHT22;494;48.744;10.106;2024-01-16T15:21:45;5.80;1.00
1011;DHT22;494;48.744;10.106;2024-01-16T15:24:15;5.50;1.00
1011;DHT22;494;48.744;10.106;2024-01-16T15:26:49;5.10;1.00
1011;DHT22;494;48.744;10.106;2024-01-16T15:29:18;4.60;1.00
1011;DHT22;494;48.744;10.106;2024-01-16T15:31:48;4.50;1.00
1011;DHT22;494;48.744;10.106;2024-01-16T15:34:17;4.30;1.00
1011;DHT22;494;48.744;10.106;2024-01-16T15:36:48;4.10;1.00
1011;DHT22;494;48.744;10.106;2024-01-16T15:39:17;4.10;1.00
1011;DHT22;494;48.744;10.106;2024-01-16T15:41:46;3.90;1.00
1011;DHT22;494;48.744;10.106;2024-01-16T15:44:15;3.70;1.00
1011;DHT22;494;48.744;10.106;2024-01-16T15:46:56;3.50;1.00
1011;DHT22;494;48.744;10.106;2024-01-16T15:49:26;3.40;1.00
1011;DHT22;494;48.744;10.106;2024-01-16T15:51:58;3.20;1.00
1011;DHT22;494;48.744;10.106;2024-01-16T15:54:27;3.20;1.00
1011;DHT22;494;48.744;10.106;2024-01-16T15:56:57;3.00;1.00
1011;DHT22;494;48.744;10.106;2024-01-16T15:59:27;3.00;1.00
1011;DHT22;494;48.744;10.106;2024-01-16T16:02:23;2.90;1.00
1011;DHT22;494;48.744;10.106;2024-01-16T16:04:53;3.00;1.00
1011;DHT22;494;48.744;10.106;2024-01-16T16:07:42;2.80;1.00
1011;DHT22;494;48.744;10.106;2024-01-16T16:10:12;2.70;1.00
1011;DHT22;494;48.744;10.106;2024-01-16T16:12:41;2.60;1.00
1011;DHT22;494;48.744;10.106;2024-01-16T16:15:09;2.70;1.00
1011;DHT22;494;48.744;10.106;2024-01-16T16:17:39;2.40;1.00
1011;DHT22;494;48.744;10.106;2024-01-16T16:20:10;2.40;1.00
1011;DHT22;494;48.744;10.106;2024-01-16T16:22:39;2.10;1.00
1011;DHT22;494;48.744;10.106;2024-01-16T16:25:11;1.80;1.00
